createdAt,value
2022-10-19T00:00:31.433Z,7.72
2022-10-19T00:02:57.965Z,7.40
2022-10-19T00:05:24.506Z,8.68
2022-10-19T00:07:51.041Z,9.60
2022-10-19T00:10:17.586Z,12.93
2022-10-19T00:12:44.167Z,11.63
2022-10-19T00:15:12.177Z,9.73
2022-10-19T00:17:38.719Z,11.40
2022-10-19T00:20:06.052Z,10.15
2022-10-19T00:22:33.000Z,12.13
2022-10-19T00:24:59.788Z,11.02
2022-10-19T00:27:26.365Z,11.98
2022-10-19T00:29:52.932Z,11.88
2022-10-19T00:32:20.842Z,12.68
2022-10-19T00:34:47.412Z,11.55
2022-10-19T00:37:14.091Z,10.15
2022-10-19T00:39:40.783Z,11.45
2022-10-19T00:42:10.445Z,10.20
2022-10-19T00:45:05.117Z,10.25
2022-10-19T00:47:34.051Z,10.52
2022-10-19T00:50:00.618Z,10.95
2022-10-19T00:52:28.801Z,10.27
2022-10-19T00:54:57.838Z,9.38
2022-10-19T00:57:28.172Z,10.52
2022-10-19T00:59:55.489Z,10.55
2022-10-19T01:02:22.017Z,12.07
2022-10-19T01:04:52.300Z,9.40
2022-10-19T01:07:19.870Z,8.77
2022-10-19T01:09:46.436Z,9.10
2022-10-19T01:12:25.477Z,9.43
2022-10-19T01:15:06.221Z,9.93
2022-10-19T01:17:44.476Z,9.75
2022-10-19T01:20:42.355Z,10.38
2022-10-19T01:23:37.493Z,9.10
2022-10-19T01:26:16.887Z,9.48
2022-10-19T01:28:54.877Z,8.90
2022-10-19T01:31:29.903Z,8.43
2022-10-19T01:34:03.439Z,9.57
2022-10-19T01:36:40.782Z,7.72
2022-10-19T01:39:11.731Z,8.88
2022-10-19T01:41:47.145Z,8.87
2022-10-19T01:44:18.769Z,8.80
2022-10-19T01:46:51.294Z,8.52
2022-10-19T01:49:25.176Z,8.07
2022-10-19T01:54:34.964Z,8.95
2022-10-19T01:57:04.285Z,8.77
2022-10-19T01:59:33.627Z,9.15
2022-10-19T02:02:03.496Z,9.45
2022-10-19T02:04:31.785Z,8.70
2022-10-19T02:06:59.194Z,9.00
2022-10-19T02:09:25.774Z,9.00
2022-10-19T02:11:57.237Z,8.43
2022-10-19T02:14:27.554Z,8.73
2022-10-19T02:16:59.256Z,8.57
2022-10-19T02:19:27.155Z,9.13
2022-10-19T02:21:54.086Z,8.32
2022-10-19T02:24:20.618Z,8.57
2022-10-19T02:26:47.253Z,8.52
2022-10-19T02:29:15.223Z,8.18
2022-10-19T02:31:42.143Z,8.43
2022-10-19T02:34:09.963Z,7.78
2022-10-19T02:36:38.057Z,8.18
2022-10-19T02:39:06.593Z,7.68
2022-10-19T02:41:38.083Z,7.40
2022-10-19T02:44:10.083Z,7.88
2022-10-19T02:49:09.295Z,6.95
2022-10-19T02:51:38.735Z,6.43
2022-10-19T02:54:07.749Z,6.93
2022-10-19T02:56:35.227Z,6.88
2022-10-19T02:59:01.875Z,6.88
2022-10-19T03:01:28.518Z,6.63
2022-10-19T03:03:55.056Z,7.25
2022-10-19T03:06:21.610Z,7.47
2022-10-19T03:08:49.563Z,7.28
2022-10-19T03:11:16.098Z,8.48
2022-10-19T03:13:42.662Z,8.35
2022-10-19T03:16:11.021Z,8.23
2022-10-19T03:18:37.722Z,8.27
2022-10-19T03:21:06.361Z,8.50
2022-10-19T03:23:33.109Z,7.53
2022-10-19T03:26:01.091Z,7.47
2022-10-19T03:28:27.701Z,7.22
2022-10-19T03:30:54.301Z,9.00
2022-10-19T03:33:20.910Z,8.32
2022-10-19T03:35:47.499Z,7.57
2022-10-19T03:38:14.270Z,7.80
2022-10-19T03:40:40.846Z,7.82
2022-10-19T03:43:08.851Z,7.28
2022-10-19T03:45:35.381Z,7.57
2022-10-19T03:48:01.947Z,7.47
2022-10-19T03:50:28.520Z,7.57
2022-10-19T03:52:55.601Z,7.30
2022-10-19T03:55:22.205Z,7.55
2022-10-19T03:57:48.759Z,7.40
2022-10-19T04:00:16.997Z,7.60
2022-10-19T04:02:43.621Z,9.27
2022-10-19T04:05:10.218Z,8.18
2022-10-19T04:07:36.793Z,7.80
2022-10-19T04:10:03.841Z,7.45
2022-10-19T04:12:30.432Z,7.63
2022-10-19T04:14:57.847Z,7.68
2022-10-19T04:17:26.308Z,8.38
2022-10-19T04:19:52.843Z,8.10
2022-10-19T04:22:19.420Z,8.52
2022-10-19T04:24:45.950Z,8.52
2022-10-19T04:27:12.528Z,8.23
2022-10-19T04:29:39.087Z,8.25
2022-10-19T04:32:06.123Z,8.15
2022-10-19T04:34:36.357Z,7.15
2022-10-19T04:37:05.892Z,7.55
2022-10-19T04:39:32.432Z,7.47
2022-10-19T04:41:59.011Z,7.20
2022-10-19T04:44:25.556Z,6.75
2022-10-19T04:46:52.288Z,7.35
2022-10-19T04:49:20.245Z,7.38
2022-10-19T04:51:48.275Z,7.03
2022-10-19T04:54:14.942Z,6.88
2022-10-19T04:56:41.677Z,7.18
2022-10-19T04:59:09.634Z,7.78
2022-10-19T05:01:36.304Z,7.55
2022-10-19T05:04:03.307Z,6.88
2022-10-19T05:06:31.083Z,6.22
2022-10-19T05:08:59.727Z,6.82
2022-10-19T05:11:26.548Z,6.90
2022-10-19T05:13:53.093Z,10.98
2022-10-19T05:16:21.270Z,9.10
2022-10-19T05:18:48.841Z,7.68
2022-10-19T05:21:16.001Z,8.02
2022-10-19T05:23:42.583Z,7.95
2022-10-19T05:26:12.400Z,6.93
2022-10-19T05:28:39.329Z,7.28
2022-10-19T05:31:08.681Z,6.93
2022-10-19T05:33:35.686Z,6.18
2022-10-19T05:36:14.069Z,6.60
2022-10-19T05:38:40.788Z,7.10
2022-10-19T05:41:07.366Z,8.90
2022-10-19T05:43:35.376Z,7.50
2022-10-19T05:46:06.824Z,6.53
2022-10-19T05:48:34.330Z,6.30
2022-10-19T05:51:00.983Z,5.45
2022-10-19T05:53:27.855Z,5.63
2022-10-19T05:55:54.698Z,4.90
2022-10-19T05:58:21.535Z,5.25
2022-10-19T06:00:53.484Z,4.97
2022-10-19T06:05:46.824Z,4.72
2022-10-19T06:08:13.434Z,3.55
2022-10-19T06:10:39.986Z,3.72
2022-10-19T06:13:06.604Z,3.42
2022-10-19T06:15:33.827Z,4.25
2022-10-19T06:18:03.729Z,4.13
2022-10-19T06:20:30.451Z,4.60
2022-10-19T06:22:57.018Z,3.30
2022-10-19T06:25:23.552Z,3.53
2022-10-19T06:27:50.169Z,3.83
2022-10-19T06:30:17.013Z,3.40
2022-10-19T06:32:43.611Z,3.45
2022-10-19T06:35:11.667Z,3.53
2022-10-19T06:37:38.245Z,3.33
2022-10-19T06:40:07.256Z,3.50
2022-10-19T06:42:34.186Z,3.78
2022-10-19T06:45:00.751Z,3.53
2022-10-19T06:47:27.307Z,3.05
2022-10-19T06:49:53.857Z,3.20
2022-10-19T06:52:21.782Z,2.90
2022-10-19T06:54:48.355Z,3.30
2022-10-19T06:57:14.939Z,2.83
2022-10-19T06:59:41.523Z,3.33
2022-10-19T07:02:10.083Z,2.92
2022-10-19T07:04:36.626Z,3.20
2022-10-19T07:07:03.280Z,3.85
2022-10-19T07:09:31.239Z,3.35
2022-10-19T07:11:57.790Z,3.50
2022-10-19T07:14:24.401Z,3.30
2022-10-19T07:16:51.280Z,3.15
2022-10-19T07:19:17.877Z,3.95
2022-10-19T07:21:44.444Z,3.92
2022-10-19T07:24:11.277Z,3.80
2022-10-19T07:26:39.222Z,4.00
2022-10-19T07:29:05.780Z,3.95
2022-10-19T07:31:32.629Z,5.00
2022-10-19T07:34:01.174Z,4.07
2022-10-19T07:36:29.398Z,3.42
2022-10-19T07:38:55.995Z,4.30
2022-10-19T07:41:24.484Z,5.15
2022-10-19T07:43:53.487Z,4.22
2022-10-19T07:46:22.454Z,5.05
2022-10-19T07:48:49.792Z,4.88
2022-10-19T07:51:17.581Z,5.00
2022-10-19T07:53:44.417Z,4.82
2022-10-19T07:56:12.475Z,5.18
2022-10-19T07:58:39.814Z,4.47
2022-10-19T08:01:09.791Z,4.70
2022-10-19T08:06:23.400Z,4.70
2022-10-19T08:08:52.565Z,4.43
2022-10-19T08:11:21.568Z,4.78
2022-10-19T08:13:48.608Z,4.72
2022-10-19T08:16:25.489Z,4.45
2022-10-19T08:18:53.114Z,4.13
2022-10-19T08:21:19.663Z,4.20
2022-10-19T08:23:46.225Z,4.00
2022-10-19T08:26:12.852Z,4.18
2022-10-19T08:28:39.431Z,4.32
2022-10-19T08:31:13.661Z,4.03
2022-10-19T08:33:41.835Z,4.05
2022-10-19T08:36:10.022Z,4.32
2022-10-19T08:38:37.662Z,4.40
2022-10-19T08:41:11.785Z,3.97
2022-10-19T08:43:48.292Z,4.43
2022-10-19T08:46:22.813Z,3.90
2022-10-19T08:48:52.051Z,4.13
2022-10-19T08:51:18.679Z,3.88
2022-10-19T08:53:52.729Z,4.38
2022-10-19T08:56:49.208Z,3.83
2022-10-19T08:59:21.624Z,4.55
2022-10-19T09:01:54.556Z,4.22
2022-10-19T09:04:26.533Z,4.55
2022-10-19T09:07:03.710Z,6.13
2022-10-19T09:09:31.602Z,4.10
2022-10-19T09:12:03.337Z,3.60
2022-10-19T09:14:32.985Z,4.28
2022-10-19T09:17:02.669Z,3.65
2022-10-19T09:19:30.956Z,4.53
2022-10-19T09:22:00.610Z,4.45
2022-10-19T09:24:29.787Z,3.40
2022-10-19T09:26:58.886Z,4.30
2022-10-19T09:29:32.837Z,4.50
2022-10-19T09:32:01.577Z,4.70
2022-10-19T09:34:33.764Z,4.38
2022-10-19T09:37:00.786Z,4.20
2022-10-19T09:39:29.705Z,4.05
2022-10-19T09:41:58.028Z,4.65
2022-10-19T09:44:25.607Z,4.05
2022-10-19T09:46:55.331Z,5.10
2022-10-19T09:49:39.570Z,5.10
2022-10-19T09:52:06.165Z,5.75
2022-10-19T09:54:35.935Z,4.50
2022-10-19T09:57:03.998Z,5.53
2022-10-19T09:59:35.816Z,5.35
2022-10-19T10:02:16.490Z,5.53
2022-10-19T10:04:54.452Z,5.80
2022-10-19T10:07:34.208Z,5.78
2022-10-19T10:10:01.076Z,5.07
2022-10-19T10:12:27.775Z,5.35
2022-10-19T10:14:54.596Z,5.55
2022-10-19T10:17:24.488Z,5.47
2022-10-19T10:20:17.821Z,4.35
2022-10-19T10:22:52.533Z,5.07
2022-10-19T10:25:19.238Z,4.95
2022-10-19T10:27:55.800Z,4.63
2022-10-19T10:30:22.497Z,4.57
2022-10-19T10:32:51.163Z,4.53
2022-10-19T10:35:23.406Z,4.78
2022-10-19T10:37:50.297Z,5.22
2022-10-19T10:40:23.810Z,5.28
2022-10-19T10:42:52.451Z,6.22
2022-10-19T10:45:23.600Z,6.22
2022-10-19T10:47:50.513Z,6.20
2022-10-19T10:50:22.334Z,6.43
2022-10-19T10:55:25.898Z,6.10
2022-10-19T10:58:02.310Z,5.43
2022-10-19T11:00:29.419Z,6.25
2022-10-19T11:03:01.541Z,5.85
2022-10-19T11:05:33.375Z,6.10
2022-10-19T11:10:33.251Z,5.05
2022-10-19T11:13:08.699Z,6.50
2022-10-19T11:15:40.828Z,5.97
2022-10-19T11:18:16.693Z,4.97
2022-10-19T11:20:53.297Z,4.50
2022-10-19T11:23:33.603Z,4.93
2022-10-19T11:26:12.384Z,4.85
2022-10-19T11:28:54.447Z,4.93
2022-10-19T11:33:59.253Z,6.45
2022-10-19T11:36:46.182Z,5.57
2022-10-19T11:39:28.262Z,6.18
2022-10-19T11:44:38.784Z,5.70
2022-10-19T11:47:19.410Z,6.60
2022-10-19T11:49:59.498Z,6.25
2022-10-19T11:52:38.795Z,6.32
2022-10-19T11:55:16.105Z,6.15
2022-10-19T11:57:51.473Z,6.55
2022-10-19T12:00:40.043Z,6.38
2022-10-19T12:03:24.536Z,6.60
2022-10-19T12:06:08.371Z,6.03
2022-10-19T12:08:51.162Z,5.43
2022-10-19T12:11:29.054Z,5.03
2022-10-19T12:14:00.702Z,6.35
2022-10-19T12:16:37.847Z,6.00
2022-10-19T12:19:07.012Z,5.40
2022-10-19T12:21:36.428Z,5.78
2022-10-19T12:24:11.459Z,5.70
2022-10-19T12:26:39.936Z,5.88
2022-10-19T12:29:13.972Z,6.07
2022-10-19T12:31:41.153Z,5.22
2022-10-19T12:34:20.336Z,5.32
2022-10-19T12:36:52.459Z,5.10
2022-10-19T12:39:26.479Z,4.82
2022-10-19T12:41:59.945Z,4.70
2022-10-19T12:45:20.137Z,4.60
2022-10-19T12:48:19.051Z,5.43
2022-10-19T12:51:14.083Z,5.68
2022-10-19T12:53:44.291Z,4.57
2022-10-19T12:56:17.745Z,5.00
2022-10-19T12:58:52.485Z,5.18
2022-10-19T13:01:24.435Z,5.70
2022-10-19T13:04:05.579Z,5.60
2022-10-19T13:06:35.006Z,6.70
2022-10-19T13:09:04.771Z,6.15
2022-10-19T13:14:06.981Z,6.35
2022-10-19T13:16:58.009Z,6.63
2022-10-19T13:19:25.028Z,6.75
2022-10-19T13:22:00.092Z,6.28
2022-10-19T13:24:30.719Z,6.70
2022-10-19T13:27:37.464Z,6.38
2022-10-19T13:30:44.891Z,6.82
2022-10-19T13:33:44.075Z,5.88
2022-10-19T13:36:11.872Z,6.30
2022-10-19T13:38:39.665Z,5.50
2022-10-19T13:41:11.490Z,5.70
2022-10-19T13:46:11.800Z,5.57
2022-10-19T13:48:59.235Z,4.75
2022-10-19T13:51:34.664Z,5.22
2022-10-19T13:54:13.840Z,5.28
2022-10-19T13:57:04.932Z,4.88
2022-10-19T14:00:11.801Z,4.68
2022-10-19T14:03:06.716Z,5.07
2022-10-19T14:05:56.439Z,4.82
2022-10-19T14:08:38.477Z,5.00
2022-10-19T14:13:32.524Z,5.82
2022-10-19T14:16:00.380Z,5.80
2022-10-19T14:18:30.256Z,4.85
2022-10-19T14:20:58.164Z,5.05
2022-10-19T14:23:26.966Z,6.25
2022-10-19T14:25:55.672Z,5.20
2022-10-19T14:28:23.372Z,5.35
2022-10-19T14:30:56.262Z,5.32
2022-10-19T14:33:23.342Z,5.22
2022-10-19T14:35:52.836Z,4.72
2022-10-19T14:38:22.059Z,4.60
2022-10-19T14:40:48.660Z,4.60
2022-10-19T14:43:21.116Z,4.75
2022-10-19T14:46:03.529Z,5.18
2022-10-19T14:48:30.099Z,4.90
2022-10-19T14:50:58.206Z,4.72
2022-10-19T14:53:35.377Z,4.40
2022-10-19T14:56:07.813Z,4.03
2022-10-19T14:58:39.979Z,4.28
2022-10-19T15:01:07.398Z,4.32
2022-10-19T15:03:34.275Z,4.40
2022-10-19T15:06:05.723Z,4.40
2022-10-19T15:08:36.870Z,4.20
2022-10-19T15:11:05.937Z,4.00
2022-10-19T15:13:35.699Z,4.53
2022-10-19T15:16:02.298Z,4.18
2022-10-19T15:18:48.720Z,4.03
2022-10-19T15:21:19.660Z,4.32
2022-10-19T15:23:47.329Z,4.70
2022-10-19T15:26:18.409Z,4.20
2022-10-19T15:28:45.620Z,4.50
2022-10-19T15:31:18.763Z,3.72
2022-10-19T15:33:48.845Z,4.32
2022-10-19T15:36:17.740Z,4.57
2022-10-19T15:38:46.080Z,3.97
2022-10-19T15:41:18.232Z,3.80
2022-10-19T15:43:47.085Z,3.78
2022-10-19T15:46:25.850Z,3.92
2022-10-19T15:48:55.324Z,4.10
2022-10-19T15:51:44.076Z,3.45
2022-10-19T15:54:11.074Z,3.80
2022-10-19T15:56:39.404Z,4.20
2022-10-19T15:59:11.032Z,4.25
2022-10-19T16:01:37.789Z,4.15
2022-10-19T16:04:04.762Z,4.03
2022-10-19T16:06:33.846Z,3.65
2022-10-19T16:09:02.026Z,4.55
2022-10-19T16:11:29.801Z,3.88
2022-10-19T16:13:56.363Z,4.15
2022-10-19T16:16:25.196Z,4.45
2022-10-19T16:18:52.515Z,4.70
2022-10-19T16:21:21.018Z,4.32
2022-10-19T16:23:47.633Z,4.40
2022-10-19T16:26:16.963Z,4.78
2022-10-19T16:28:44.407Z,4.15
2022-10-19T16:31:11.672Z,4.45
2022-10-19T16:33:38.246Z,4.70
2022-10-19T16:36:05.766Z,3.65
2022-10-19T16:38:32.660Z,4.53
2022-10-19T16:41:00.480Z,4.97
2022-10-19T16:43:28.637Z,4.35
2022-10-19T16:45:55.200Z,4.22
2022-10-19T16:48:24.191Z,4.28
2022-10-19T16:51:18.975Z,4.78
2022-10-19T16:53:45.644Z,4.43
2022-10-19T16:56:13.388Z,4.30
2022-10-19T16:58:42.049Z,4.60
2022-10-19T17:01:09.025Z,4.70
2022-10-19T17:03:37.551Z,4.75
2022-10-19T17:06:04.787Z,4.57
2022-10-19T17:08:37.142Z,4.57
2022-10-19T17:11:12.897Z,4.50
2022-10-19T17:13:41.569Z,4.82
2022-10-19T17:16:09.520Z,4.53
2022-10-19T17:18:36.841Z,4.45
2022-10-19T17:21:05.887Z,4.95
2022-10-19T17:23:32.533Z,3.83
2022-10-19T17:25:59.075Z,4.72
2022-10-19T17:28:27.727Z,5.38
2022-10-19T17:30:55.956Z,4.68
2022-10-19T17:33:22.521Z,4.65
2022-10-19T17:35:49.063Z,4.80
2022-10-19T17:38:15.643Z,5.00
2022-10-19T17:40:42.196Z,5.22
2022-10-19T17:43:08.970Z,10.65
2022-10-19T17:45:35.565Z,14.27
2022-10-19T17:48:03.905Z,31.98
2022-10-19T17:50:30.652Z,153.45
2022-10-19T17:52:57.888Z,143.95
2022-10-19T17:55:24.465Z,46.50
2022-10-19T17:57:51.013Z,45.53
2022-10-19T18:00:17.713Z,40.55
2022-10-19T18:02:44.881Z,36.78
2022-10-19T18:05:13.027Z,20.80
2022-10-19T18:07:39.577Z,17.35
2022-10-19T18:10:06.361Z,16.05
2022-10-19T18:12:32.916Z,14.65
2022-10-19T18:14:59.450Z,11.65
2022-10-19T18:17:27.805Z,12.20
2022-10-19T18:19:54.600Z,15.95
2022-10-19T18:22:22.502Z,13.95
2022-10-19T18:24:49.049Z,14.05
2022-10-19T18:27:15.696Z,17.63
2022-10-19T18:29:42.253Z,13.13
2022-10-19T18:32:08.835Z,9.00
2022-10-19T18:34:35.405Z,10.70
2022-10-19T18:37:01.956Z,12.65
2022-10-19T18:39:29.856Z,12.25
2022-10-19T18:41:56.422Z,12.45
2022-10-19T18:44:26.554Z,13.60
2022-10-19T18:46:55.322Z,10.43
2022-10-19T18:49:21.872Z,11.77
2022-10-19T18:51:52.452Z,10.88
2022-10-19T18:54:21.888Z,10.40
2022-10-19T18:56:49.838Z,10.63
2022-10-19T18:59:16.431Z,10.63
2022-10-19T19:01:43.142Z,10.38
2022-10-19T19:04:10.232Z,9.90
2022-10-19T19:06:37.927Z,9.35
2022-10-19T19:09:07.429Z,9.90
2022-10-19T19:11:37.034Z,10.38
2022-10-19T19:14:07.468Z,9.48
2022-10-19T19:16:35.675Z,9.00
2022-10-19T19:19:02.504Z,9.50
2022-10-19T19:21:30.425Z,9.60
2022-10-19T19:23:59.689Z,9.10
2022-10-19T19:26:29.071Z,9.88
2022-10-19T19:28:55.680Z,9.27
2022-10-19T19:31:23.958Z,9.55
2022-10-19T19:33:50.606Z,9.25
2022-10-19T19:36:18.607Z,9.02
2022-10-19T19:38:45.819Z,10.13
2022-10-19T19:41:14.833Z,8.98
2022-10-19T19:43:42.049Z,8.90
2022-10-19T19:46:12.547Z,8.43
2022-10-19T19:48:42.730Z,9.05
2022-10-19T19:51:10.378Z,9.07
2022-10-19T19:53:37.980Z,9.23
2022-10-19T19:56:06.222Z,8.57
2022-10-19T19:58:32.776Z,9.10
2022-10-19T20:00:59.301Z,9.75
2022-10-19T20:03:25.879Z,9.45
2022-10-19T20:05:53.736Z,9.38
2022-10-19T20:08:20.280Z,9.23
2022-10-19T20:10:46.827Z,8.32
2022-10-19T20:13:13.397Z,9.15
2022-10-19T20:15:39.935Z,9.50
2022-10-19T20:18:06.723Z,8.57
2022-10-19T20:20:33.257Z,9.10
2022-10-19T20:23:01.164Z,9.73
2022-10-19T20:25:27.724Z,9.07
2022-10-19T20:27:54.295Z,9.43
2022-10-19T20:30:20.879Z,8.77
2022-10-19T20:32:47.428Z,9.43
2022-10-19T20:35:14.737Z,9.02
2022-10-19T20:37:41.317Z,8.55
2022-10-19T20:40:11.031Z,10.20
2022-10-19T20:42:37.978Z,8.50
2022-10-19T20:45:05.718Z,8.68
2022-10-19T20:47:32.284Z,8.25
2022-10-19T20:49:58.896Z,9.23
2022-10-19T20:52:25.559Z,9.90
2022-10-19T20:54:52.108Z,8.23
2022-10-19T20:57:20.012Z,9.10
2022-10-19T20:59:46.547Z,8.85
2022-10-19T21:02:13.091Z,9.32
2022-10-19T21:04:39.808Z,9.43
2022-10-19T21:07:06.432Z,9.23
2022-10-19T21:09:33.041Z,8.48
2022-10-19T21:11:59.886Z,9.45
2022-10-19T21:14:29.255Z,9.43
2022-10-19T21:16:56.588Z,9.23
2022-10-19T21:19:25.440Z,9.05
2022-10-19T21:21:53.808Z,8.98
2022-10-19T21:24:22.637Z,9.25
2022-10-19T21:26:49.249Z,9.35
2022-10-19T21:29:17.014Z,9.63
2022-10-19T21:31:48.781Z,9.00
2022-10-19T21:34:18.673Z,9.13
2022-10-19T21:36:45.546Z,8.93
2022-10-19T21:39:12.113Z,8.68
2022-10-19T21:41:38.853Z,9.43
2022-10-19T21:44:05.623Z,9.20
2022-10-19T21:46:32.188Z,8.32
2022-10-19T21:49:00.107Z,9.32
2022-10-19T21:51:33.788Z,9.40
2022-10-19T21:54:00.698Z,9.38
2022-10-19T21:56:27.547Z,8.65
2022-10-19T21:58:54.370Z,9.68
2022-10-19T22:01:24.085Z,9.68
2022-10-19T22:03:55.069Z,9.40
2022-10-19T22:06:23.573Z,11.98
2022-10-19T22:08:50.229Z,9.27
2022-10-19T22:11:16.809Z,9.00
2022-10-19T22:13:43.581Z,11.63
2022-10-19T22:16:13.391Z,8.88
2022-10-19T22:18:40.197Z,13.52
2022-10-19T22:21:09.221Z,15.13
2022-10-19T22:23:37.208Z,11.68
2022-10-19T22:26:12.302Z,10.02
2022-10-19T22:28:38.979Z,9.10
2022-10-19T22:31:05.765Z,9.40
2022-10-19T22:33:32.439Z,8.63
2022-10-19T22:36:00.644Z,9.82
2022-10-19T22:38:28.424Z,9.50
2022-10-19T22:40:56.290Z,9.18
2022-10-19T22:43:22.828Z,10.30
2022-10-19T22:45:50.201Z,9.07
2022-10-19T22:48:17.545Z,8.95
2022-10-19T22:50:44.407Z,9.55
2022-10-19T22:53:11.445Z,9.70
2022-10-19T22:55:38.741Z,9.35
2022-10-19T22:58:08.801Z,8.88
2022-10-19T23:00:36.264Z,10.63
2022-10-19T23:03:02.845Z,9.18
2022-10-19T23:05:29.603Z,9.93
2022-10-19T23:07:56.166Z,10.43
2022-10-19T23:10:23.108Z,9.55
2022-10-19T23:12:49.934Z,8.75
2022-10-19T23:15:18.672Z,9.43
2022-10-19T23:17:45.263Z,9.18
2022-10-19T23:20:12.996Z,9.93
2022-10-19T23:22:40.005Z,9.18
2022-10-19T23:25:07.725Z,10.00
2022-10-19T23:27:34.610Z,10.50
2022-10-19T23:30:02.499Z,9.57
2022-10-19T23:32:30.420Z,10.02
2022-10-19T23:34:57.203Z,8.55
2022-10-19T23:37:23.811Z,9.68
2022-10-19T23:39:50.343Z,9.75
2022-10-19T23:42:16.980Z,9.50
2022-10-19T23:44:43.543Z,9.70
2022-10-19T23:47:10.108Z,9.50
2022-10-19T23:49:38.036Z,9.15
2022-10-19T23:52:04.848Z,8.85
2022-10-19T23:54:31.416Z,9.35
2022-10-19T23:56:58.107Z,8.95
2022-10-19T23:59:24.804Z,8.57
